createdAt,value
2022-10-20T00:00:10.340Z,9.92
2022-10-20T00:01:12.084Z,9.92
2022-10-20T00:02:13.848Z,9.91
2022-10-20T00:03:15.537Z,9.88
2022-10-20T00:04:17.271Z,9.87
2022-10-20T00:05:18.986Z,9.87
2022-10-20T00:06:20.772Z,9.86
2022-10-20T00:07:22.469Z,9.85
2022-10-20T00:08:24.366Z,9.83
2022-10-20T00:09:25.941Z,9.83
2022-10-20T00:10:27.657Z,9.81
2022-10-20T00:11:29.397Z,9.78
2022-10-20T00:12:31.220Z,9.78
2022-10-20T00:13:32.882Z,9.78
2022-10-20T00:14:34.683Z,9.77
2022-10-20T00:15:36.357Z,9.76
2022-10-20T00:16:38.059Z,9.74
2022-10-20T00:17:39.805Z,9.75
2022-10-20T00:18:41.550Z,9.74
2022-10-20T00:19:43.257Z,9.73
2022-10-20T00:20:44.987Z,9.72
2022-10-20T00:21:46.731Z,9.7
2022-10-20T00:22:48.461Z,9.68
2022-10-20T00:23:50.200Z,9.67
2022-10-20T00:24:51.932Z,9.66
2022-10-20T00:25:53.681Z,9.64
2022-10-20T00:26:55.703Z,9.64
2022-10-20T00:27:57.126Z,9.63
2022-10-20T00:28:58.867Z,9.63
2022-10-20T00:30:00.590Z,9.62
2022-10-20T00:31:02.323Z,9.62
2022-10-20T00:32:04.068Z,9.61
2022-10-20T00:33:05.791Z,9.61
2022-10-20T00:34:07.524Z,9.6
2022-10-20T00:35:09.249Z,9.59
2022-10-20T00:36:11.141Z,9.58
2022-10-20T00:37:12.735Z,9.57
2022-10-20T00:38:14.580Z,9.57
2022-10-20T00:39:16.185Z,9.56
2022-10-20T00:40:17.910Z,9.56
2022-10-20T00:41:20.119Z,9.55
2022-10-20T00:42:21.386Z,9.54
2022-10-20T00:43:23.204Z,9.54
2022-10-20T00:44:24.852Z,9.54
2022-10-20T00:45:26.584Z,9.53
2022-10-20T00:46:28.310Z,9.53
2022-10-20T00:47:30.049Z,9.53
2022-10-20T00:48:31.792Z,9.53
2022-10-20T00:49:33.529Z,9.53
2022-10-20T00:50:35.259Z,9.52
2022-10-20T00:51:36.976Z,9.53
2022-10-20T00:52:38.841Z,9.53
2022-10-20T00:53:40.552Z,9.52
2022-10-20T00:54:42.197Z,9.52
2022-10-20T00:55:43.910Z,9.51
2022-10-20T00:56:45.649Z,9.51
2022-10-20T00:57:47.383Z,9.5
2022-10-20T00:58:49.115Z,9.51
2022-10-20T00:59:50.993Z,9.49
2022-10-20T01:00:53.882Z,9.48
2022-10-20T01:01:54.399Z,9.46
2022-10-20T01:02:56.052Z,9.46
2022-10-20T01:03:57.787Z,9.46
2022-10-20T01:04:59.514Z,9.45
2022-10-20T01:06:01.311Z,9.44
2022-10-20T01:07:02.996Z,9.44
2022-10-20T01:08:04.726Z,9.42
2022-10-20T01:09:06.548Z,9.42
2022-10-20T01:10:08.170Z,9.41
2022-10-20T01:11:09.911Z,9.4
2022-10-20T01:12:11.663Z,9.38
2022-10-20T01:13:13.376Z,9.39
2022-10-20T01:14:15.130Z,9.36
2022-10-20T01:15:16.888Z,9.36
2022-10-20T01:16:18.569Z,9.35
2022-10-20T01:17:20.294Z,9.34
2022-10-20T01:18:22.034Z,9.33
2022-10-20T01:19:23.776Z,9.33
2022-10-20T01:20:25.555Z,9.32
2022-10-20T01:21:27.197Z,9.3
2022-10-20T01:22:28.916Z,9.3
2022-10-20T01:23:30.921Z,9.3
2022-10-20T01:24:32.410Z,9.28
2022-10-20T01:25:34.131Z,9.27
2022-10-20T01:26:35.856Z,9.25
2022-10-20T01:27:37.961Z,9.26
2022-10-20T01:28:39.330Z,9.25
2022-10-20T01:29:41.055Z,9.23
2022-10-20T01:30:42.789Z,9.24
2022-10-20T01:31:44.530Z,9.24
2022-10-20T01:32:46.256Z,9.22
2022-10-20T01:33:48.010Z,9.21
2022-10-20T01:34:52.191Z,9.19
2022-10-20T01:35:51.457Z,9.2
2022-10-20T01:36:53.214Z,9.2
2022-10-20T01:37:55.124Z,9.19
2022-10-20T01:38:56.672Z,9.19
2022-10-20T01:39:58.389Z,9.17
2022-10-20T01:41:00.126Z,9.17
2022-10-20T01:42:01.860Z,9.17
2022-10-20T01:43:03.591Z,9.15
2022-10-20T01:44:05.356Z,9.15
2022-10-20T01:45:07.049Z,9.15
2022-10-20T01:46:08.789Z,9.15
2022-10-20T01:47:10.526Z,9.14
2022-10-20T01:48:12.290Z,9.13
2022-10-20T01:49:13.995Z,9.12
2022-10-20T01:50:15.717Z,9.11
2022-10-20T01:51:17.452Z,9.11
2022-10-20T01:52:19.188Z,9.09
2022-10-20T01:53:20.904Z,9.09
2022-10-20T01:54:22.649Z,9.08
2022-10-20T01:55:24.369Z,9.09
2022-10-20T01:56:26.085Z,9.08
2022-10-20T01:57:27.800Z,9.07
2022-10-20T01:58:29.533Z,9.07
2022-10-20T01:59:31.272Z,9.06
2022-10-20T02:00:33.005Z,9.05
2022-10-20T02:01:34.736Z,9.05
2022-10-20T02:02:36.713Z,9.05
2022-10-20T02:03:38.169Z,9.05
2022-10-20T02:04:39.961Z,9.04
2022-10-20T02:05:41.622Z,9.04
2022-10-20T02:06:43.367Z,9.02
2022-10-20T02:07:45.100Z,9.03
2022-10-20T02:08:46.891Z,9.01
2022-10-20T02:09:48.623Z,9.01
2022-10-20T02:10:50.291Z,9
2022-10-20T02:11:52.042Z,8.98
2022-10-20T02:12:53.755Z,8.99
2022-10-20T02:13:55.504Z,8.98
2022-10-20T02:14:57.222Z,8.96
2022-10-20T02:15:58.959Z,8.95
2022-10-20T02:17:00.692Z,8.95
2022-10-20T02:18:02.425Z,8.94
2022-10-20T02:19:04.184Z,8.93
2022-10-20T02:20:05.887Z,8.93
2022-10-20T02:21:07.627Z,8.93
2022-10-20T02:22:09.350Z,8.91
2022-10-20T02:23:11.083Z,8.91
2022-10-20T02:24:12.830Z,8.9
2022-10-20T02:25:14.567Z,8.88
2022-10-20T02:26:16.286Z,8.87
2022-10-20T02:27:18.021Z,8.87
2022-10-20T02:28:19.754Z,8.86
2022-10-20T02:29:21.519Z,8.85
2022-10-20T02:30:23.222Z,8.85
2022-10-20T02:31:24.965Z,8.83
2022-10-20T02:32:26.690Z,8.81
2022-10-20T02:33:28.433Z,8.81
2022-10-20T02:34:30.173Z,8.8
2022-10-20T02:35:31.881Z,8.81
2022-10-20T02:36:33.623Z,8.8
2022-10-20T02:37:35.733Z,8.78
2022-10-20T02:38:37.093Z,8.78
2022-10-20T02:39:38.817Z,8.77
2022-10-20T02:40:40.552Z,8.76
2022-10-20T02:41:42.484Z,8.76
2022-10-20T02:42:44.018Z,8.75
2022-10-20T02:43:45.849Z,8.74
2022-10-20T02:44:47.465Z,8.72
2022-10-20T02:45:49.203Z,8.73
2022-10-20T02:46:50.909Z,8.71
2022-10-20T02:47:52.650Z,8.7
2022-10-20T02:48:54.374Z,8.69
2022-10-20T02:49:56.103Z,8.69
2022-10-20T02:50:57.829Z,8.68
2022-10-20T02:51:59.553Z,8.68
2022-10-20T02:53:01.276Z,8.66
2022-10-20T02:54:03.002Z,8.67
2022-10-20T02:55:04.811Z,8.65
2022-10-20T02:56:06.439Z,8.65
2022-10-20T02:57:08.167Z,8.64
2022-10-20T02:58:09.885Z,8.64
2022-10-20T02:59:11.639Z,8.62
2022-10-20T03:00:13.373Z,8.62
2022-10-20T03:01:15.127Z,8.6
2022-10-20T03:02:16.795Z,8.6
2022-10-20T03:03:18.522Z,8.58
2022-10-20T03:04:20.326Z,8.58
2022-10-20T03:05:21.962Z,8.59
2022-10-20T03:06:23.721Z,8.58
2022-10-20T03:07:25.439Z,8.55
2022-10-20T03:08:27.238Z,8.56
2022-10-20T03:09:28.895Z,8.56
2022-10-20T03:10:30.606Z,8.54
2022-10-20T03:11:32.350Z,8.53
2022-10-20T03:12:34.100Z,8.53
2022-10-20T03:13:35.812Z,8.52
2022-10-20T03:14:37.561Z,8.51
2022-10-20T03:15:39.272Z,8.49
2022-10-20T03:16:41.037Z,8.48
2022-10-20T03:17:42.756Z,8.48
2022-10-20T03:18:44.492Z,8.47
2022-10-20T03:19:46.212Z,8.47
2022-10-20T03:20:47.953Z,8.47
2022-10-20T03:21:49.693Z,8.45
2022-10-20T03:22:51.438Z,8.45
2022-10-20T03:23:53.162Z,8.43
2022-10-20T03:24:54.920Z,8.43
2022-10-20T03:25:56.618Z,8.42
2022-10-20T03:26:58.344Z,8.4
2022-10-20T03:28:00.099Z,8.4
2022-10-20T03:29:01.835Z,8.4
2022-10-20T03:30:03.550Z,8.39
2022-10-20T03:31:05.288Z,8.38
2022-10-20T03:32:07.016Z,8.39
2022-10-20T03:33:08.747Z,8.38
2022-10-20T03:34:10.498Z,8.37
2022-10-20T03:35:12.239Z,8.36
2022-10-20T03:36:13.991Z,8.36
2022-10-20T03:37:15.688Z,8.36
2022-10-20T03:38:17.419Z,8.35
2022-10-20T03:39:19.382Z,8.34
2022-10-20T03:40:20.884Z,8.33
2022-10-20T03:41:22.625Z,8.32
2022-10-20T03:42:24.374Z,8.32
2022-10-20T03:43:26.095Z,8.31
2022-10-20T03:44:27.820Z,8.3
2022-10-20T03:45:29.546Z,8.3
2022-10-20T03:46:31.289Z,8.28
2022-10-20T03:47:33.014Z,8.28
2022-10-20T03:48:34.764Z,8.27
2022-10-20T03:49:36.519Z,8.28
2022-10-20T03:50:38.262Z,8.26
2022-10-20T03:51:39.946Z,8.27
2022-10-20T03:52:41.691Z,8.26
2022-10-20T03:53:47.623Z,8.27
2022-10-20T03:54:50.287Z,8.27
2022-10-20T03:55:52.034Z,8.26
2022-10-20T03:56:53.769Z,8.26
2022-10-20T03:57:55.506Z,8.25
2022-10-20T03:58:57.292Z,8.26
2022-10-20T03:59:58.966Z,8.26
2022-10-20T04:01:00.692Z,8.26
2022-10-20T04:02:02.555Z,8.27
2022-10-20T04:03:04.191Z,8.26
2022-10-20T04:04:05.914Z,8.25
2022-10-20T04:05:07.624Z,8.26
2022-10-20T04:06:09.380Z,8.26
2022-10-20T04:07:11.103Z,8.25
2022-10-20T04:08:12.831Z,8.25
2022-10-20T04:09:14.700Z,8.25
2022-10-20T04:10:16.323Z,8.25
2022-10-20T04:11:18.033Z,8.25
2022-10-20T04:12:19.773Z,8.24
2022-10-20T04:13:21.492Z,8.25
2022-10-20T04:14:23.279Z,8.25
2022-10-20T04:15:24.971Z,8.26
2022-10-20T04:16:26.717Z,8.25
2022-10-20T04:17:28.477Z,8.24
2022-10-20T04:18:30.200Z,8.24
2022-10-20T04:19:31.916Z,8.23
2022-10-20T04:20:33.647Z,8.22
2022-10-20T04:21:35.382Z,8.23
2022-10-20T04:22:37.582Z,8.22
2022-10-20T04:23:38.845Z,8.21
2022-10-20T04:24:40.593Z,8.21
2022-10-20T04:25:42.343Z,8.2
2022-10-20T04:26:44.092Z,8.21
2022-10-20T04:27:45.793Z,8.2
2022-10-20T04:28:47.521Z,8.2
2022-10-20T04:29:49.248Z,8.19
2022-10-20T04:30:50.973Z,8.19
2022-10-20T04:31:52.760Z,8.19
2022-10-20T04:32:54.450Z,8.17
2022-10-20T04:33:56.177Z,8.17
2022-10-20T04:34:57.910Z,8.17
2022-10-20T04:35:59.657Z,8.17
2022-10-20T04:37:01.376Z,8.17
2022-10-20T04:38:03.119Z,8.16
2022-10-20T04:39:04.884Z,8.17
2022-10-20T04:40:06.580Z,8.16
2022-10-20T04:41:08.321Z,8.16
2022-10-20T04:42:10.045Z,8.16
2022-10-20T04:43:11.768Z,8.16
2022-10-20T04:44:13.551Z,8.15
2022-10-20T04:45:15.235Z,8.15
2022-10-20T04:46:16.983Z,8.15
2022-10-20T04:47:18.725Z,8.15
2022-10-20T04:48:20.494Z,8.15
2022-10-20T04:49:22.200Z,8.15
2022-10-20T04:50:23.946Z,8.15
2022-10-20T04:51:25.641Z,8.15
2022-10-20T04:52:27.384Z,8.15
2022-10-20T04:53:29.117Z,8.15
2022-10-20T04:54:30.852Z,8.15
2022-10-20T04:55:32.584Z,8.16
2022-10-20T04:56:34.314Z,8.15
2022-10-20T04:57:36.476Z,8.16
2022-10-20T04:58:37.800Z,8.16
2022-10-20T04:59:39.519Z,8.16
2022-10-20T05:00:41.327Z,8.17
2022-10-20T05:01:43.057Z,8.16
2022-10-20T05:02:44.716Z,8.16
2022-10-20T05:03:46.457Z,8.17
2022-10-20T05:04:48.171Z,8.17
2022-10-20T05:05:49.918Z,8.16
2022-10-20T05:06:51.619Z,8.16
2022-10-20T05:07:53.400Z,8.16
2022-10-20T05:08:55.255Z,8.16
2022-10-20T05:09:56.863Z,8.16
2022-10-20T05:10:58.583Z,8.16
2022-10-20T05:12:00.441Z,8.16
2022-10-20T05:13:02.063Z,8.17
2022-10-20T05:14:03.814Z,8.16
2022-10-20T05:15:05.540Z,8.16
2022-10-20T05:16:07.252Z,8.16
2022-10-20T05:17:10.080Z,8.16
2022-10-20T05:18:10.708Z,8.14
2022-10-20T05:19:12.455Z,8.15
2022-10-20T05:20:14.168Z,8.14
2022-10-20T05:21:15.913Z,8.15
2022-10-20T05:22:17.659Z,8.15
2022-10-20T05:23:19.371Z,8.15
2022-10-20T05:24:22.796Z,8.14
2022-10-20T05:25:35.925Z,8.14
2022-10-20T05:26:24.575Z,8.14
2022-10-20T05:27:26.307Z,8.14
2022-10-20T05:28:28.040Z,8.14
2022-10-20T05:29:29.769Z,8.14
2022-10-20T05:30:31.551Z,8.14
2022-10-20T05:31:33.243Z,8.14
2022-10-20T05:32:35.184Z,8.14
2022-10-20T05:33:36.675Z,8.14
2022-10-20T05:34:38.257Z,8.13
2022-10-20T05:35:39.986Z,8.13
2022-10-20T05:36:41.711Z,8.12
2022-10-20T05:37:43.456Z,8.13
2022-10-20T05:38:45.201Z,8.12
2022-10-20T05:40:48.665Z,8.12
2022-10-20T05:41:50.395Z,8.12
2022-10-20T05:42:52.152Z,8.12
2022-10-20T05:43:53.876Z,8.11
2022-10-20T05:44:55.639Z,8.11
2022-10-20T05:45:57.342Z,8.11
2022-10-20T05:46:59.063Z,8.11
2022-10-20T05:48:00.773Z,8.11
2022-10-20T05:49:02.550Z,8.11
2022-10-20T05:50:04.270Z,8.11
2022-10-20T05:51:07.475Z,8.11
2022-10-20T05:52:07.720Z,8.11
2022-10-20T05:53:09.477Z,8.11
2022-10-20T05:54:11.203Z,8.11
2022-10-20T05:55:12.941Z,8.11
2022-10-20T05:56:14.658Z,8.11
2022-10-20T05:57:16.402Z,8.11
2022-10-20T05:58:19.664Z,8.11
2022-10-20T05:59:19.856Z,8.11
2022-10-20T06:00:21.590Z,8.11
2022-10-20T06:01:23.466Z,8.11
2022-10-20T06:02:25.056Z,8.11
2022-10-20T06:03:28.337Z,8.12
2022-10-20T06:04:28.537Z,8.1
2022-10-20T06:05:30.271Z,8.11
2022-10-20T06:06:32.078Z,8.11
2022-10-20T06:07:33.730Z,8.11
2022-10-20T06:08:35.551Z,8.1
2022-10-20T06:09:37.205Z,8.09
2022-10-20T06:10:38.940Z,8.11
2022-10-20T06:11:40.663Z,8.1
2022-10-20T06:12:42.422Z,8.1
2022-10-20T06:13:46.059Z,8.11
2022-10-20T06:14:51.215Z,8.1
2022-10-20T06:15:52.747Z,8.11
2022-10-20T06:16:54.465Z,8.11
2022-10-20T06:17:56.191Z,8.11
2022-10-20T06:18:57.951Z,8.11
2022-10-20T06:19:59.679Z,8.12
2022-10-20T06:21:01.394Z,8.13
2022-10-20T06:22:05.793Z,8.13
2022-10-20T06:23:04.900Z,8.13
2022-10-20T06:24:06.605Z,8.13
2022-10-20T06:25:08.328Z,8.15
2022-10-20T06:26:10.086Z,8.15
2022-10-20T06:27:11.817Z,8.16
2022-10-20T06:28:13.557Z,8.17
2022-10-20T06:29:15.274Z,8.18
2022-10-20T06:30:17.010Z,8.19
2022-10-20T06:31:18.738Z,8.2
2022-10-20T06:32:20.492Z,8.21
2022-10-20T06:33:22.221Z,8.22
2022-10-20T06:34:23.959Z,8.23
2022-10-20T06:35:25.681Z,8.25
2022-10-20T06:36:27.422Z,8.26
2022-10-20T06:37:29.150Z,8.27
2022-10-20T06:38:30.915Z,8.29
2022-10-20T06:39:32.626Z,8.3
2022-10-20T06:40:34.356Z,8.32
2022-10-20T06:41:36.096Z,8.33
2022-10-20T06:42:38.209Z,8.34
2022-10-20T06:43:39.573Z,8.36
2022-10-20T06:44:41.288Z,8.38
2022-10-20T06:45:43.006Z,8.4
2022-10-20T06:46:44.755Z,8.41
2022-10-20T06:47:46.488Z,8.43
2022-10-20T06:48:48.273Z,8.45
2022-10-20T06:49:49.957Z,8.46
2022-10-20T06:50:50.902Z,8.47
2022-10-20T06:51:53.428Z,8.49
2022-10-20T06:52:55.182Z,8.5
2022-10-20T06:53:56.899Z,8.52
2022-10-20T06:54:58.621Z,8.54
2022-10-20T06:56:00.357Z,8.56
2022-10-20T06:57:02.108Z,8.57
2022-10-20T06:58:03.828Z,8.59
2022-10-20T06:59:05.574Z,8.61
2022-10-20T07:00:07.296Z,8.62
2022-10-20T07:01:10.989Z,8.65
2022-10-20T07:02:10.838Z,8.65
2022-10-20T07:03:12.519Z,8.67
2022-10-20T07:04:14.279Z,8.69
2022-10-20T07:05:15.974Z,8.71
2022-10-20T07:06:17.745Z,8.72
2022-10-20T07:07:19.482Z,8.74
2022-10-20T07:08:21.176Z,8.75
2022-10-20T07:09:22.945Z,8.76
2022-10-20T07:10:24.745Z,8.78
2022-10-20T07:11:26.386Z,8.8
2022-10-20T07:12:28.115Z,8.82
2022-10-20T07:13:29.846Z,8.84
2022-10-20T07:14:32.483Z,8.85
2022-10-20T07:15:33.306Z,8.87
2022-10-20T07:16:35.063Z,8.89
2022-10-20T07:17:36.786Z,8.91
2022-10-20T07:18:38.548Z,8.93
2022-10-20T07:19:40.258Z,8.95
2022-10-20T07:20:41.983Z,8.98
2022-10-20T07:21:45.510Z,9
2022-10-20T07:22:45.444Z,9.01
2022-10-20T07:23:47.190Z,9.03
2022-10-20T07:24:48.949Z,9.04
2022-10-20T07:25:50.659Z,9.07
2022-10-20T07:26:52.384Z,9.08
2022-10-20T07:27:54.129Z,9.09
2022-10-20T07:28:59.049Z,9.11
2022-10-20T07:30:00.772Z,9.13
2022-10-20T07:31:02.492Z,9.12
2022-10-20T07:32:04.232Z,9.15
2022-10-20T07:33:05.966Z,9.17
2022-10-20T07:34:23.853Z,9.19
2022-10-20T07:35:09.451Z,9.18
2022-10-20T07:36:11.172Z,9.2
2022-10-20T07:37:12.903Z,9.23
2022-10-20T07:38:14.646Z,9.25
2022-10-20T07:39:16.368Z,9.27
2022-10-20T07:40:18.153Z,9.28
2022-10-20T07:41:19.830Z,9.31
2022-10-20T07:42:21.572Z,9.34
2022-10-20T07:43:23.301Z,9.39
2022-10-20T07:44:25.043Z,9.42
2022-10-20T07:45:26.828Z,9.44
2022-10-20T07:46:28.520Z,9.47
2022-10-20T07:47:30.624Z,9.5
2022-10-20T07:48:31.974Z,9.53
2022-10-20T07:49:45.078Z,9.56
2022-10-20T07:50:35.446Z,9.58
2022-10-20T07:51:37.183Z,9.61
2022-10-20T07:53:12.152Z,9.66
2022-10-20T07:54:13.877Z,9.7
2022-10-20T07:55:33.498Z,9.72
2022-10-20T07:56:17.344Z,9.73
2022-10-20T07:57:19.043Z,9.74
2022-10-20T07:58:20.773Z,9.76
2022-10-20T07:59:22.509Z,9.78
2022-10-20T08:00:24.333Z,9.79
2022-10-20T08:01:26.042Z,9.81
2022-10-20T08:02:27.698Z,9.83
2022-10-20T08:03:29.406Z,9.83
2022-10-20T08:04:31.133Z,9.85
2022-10-20T08:05:32.847Z,9.84
2022-10-20T08:06:34.594Z,9.85
2022-10-20T08:07:36.304Z,9.86
2022-10-20T08:08:38.077Z,9.86
2022-10-20T08:09:39.808Z,9.87
2022-10-20T08:10:41.562Z,9.86
2022-10-20T08:11:43.216Z,9.86
2022-10-20T08:12:44.964Z,9.85
2022-10-20T08:13:46.661Z,9.81
2022-10-20T08:14:51.444Z,9.84
2022-10-20T08:15:57.237Z,9.84
2022-10-20T08:16:51.862Z,9.85
2022-10-20T08:17:53.577Z,9.84
2022-10-20T08:20:00.748Z,9.87
2022-10-20T08:20:58.740Z,9.87
2022-10-20T08:22:00.506Z,9.87
2022-10-20T08:23:02.172Z,9.87
2022-10-20T08:24:03.931Z,9.87
2022-10-20T08:25:05.637Z,9.87
2022-10-20T08:26:10.741Z,9.87
2022-10-20T08:27:09.093Z,9.88
2022-10-20T08:28:10.816Z,9.9
2022-10-20T08:29:12.539Z,9.91
2022-10-20T08:30:23.753Z,9.94
2022-10-20T08:31:15.996Z,9.99
2022-10-20T08:32:17.749Z,10.04
2022-10-20T08:33:19.469Z,10.06
2022-10-20T08:34:21.220Z,10.15
2022-10-20T08:35:22.924Z,10.26
2022-10-20T08:36:24.689Z,10.34
2022-10-20T08:37:26.453Z,10.39
2022-10-20T08:38:28.142Z,10.46
2022-10-20T08:39:29.925Z,10.6
2022-10-20T08:40:31.617Z,10.74
2022-10-20T08:45:07.921Z,10.93
2022-10-20T08:46:09.721Z,10.88
2022-10-20T08:47:11.390Z,10.88
2022-10-20T08:48:13.111Z,10.88
2022-10-20T08:49:14.855Z,10.87
2022-10-20T08:50:16.589Z,10.89
2022-10-20T08:51:18.323Z,10.84
2022-10-20T08:52:20.078Z,10.82
2022-10-20T08:53:21.793Z,10.83
2022-10-20T08:54:23.533Z,10.86
2022-10-20T08:55:25.268Z,10.91
2022-10-20T08:56:27.004Z,11.01
2022-10-20T08:57:28.730Z,11.06
2022-10-20T08:58:30.464Z,11.08
2022-10-20T08:59:32.206Z,11.1
2022-10-20T09:00:33.949Z,11.17
2022-10-20T09:01:35.758Z,11.23
2022-10-20T09:02:37.391Z,11.28
2022-10-20T09:03:39.113Z,11.34
2022-10-20T09:04:40.854Z,11.39
2022-10-20T09:05:42.562Z,11.44
2022-10-20T09:06:44.301Z,11.48
2022-10-20T09:07:46.004Z,11.54
2022-10-20T09:08:47.783Z,11.6
2022-10-20T09:09:49.471Z,11.64
2022-10-20T09:10:51.217Z,11.72
2022-10-20T09:11:52.915Z,11.78
2022-10-20T09:12:54.685Z,11.82
2022-10-20T09:13:56.362Z,11.86
2022-10-20T09:14:58.093Z,11.87
2022-10-20T09:15:59.813Z,11.88
2022-10-20T09:17:01.546Z,11.89
2022-10-20T09:18:03.276Z,11.88
2022-10-20T09:19:04.986Z,11.85
2022-10-20T09:20:06.770Z,11.85
2022-10-20T09:21:08.453Z,11.83
2022-10-20T09:22:10.161Z,11.84
2022-10-20T09:23:35.556Z,11.83
2022-10-20T09:24:13.627Z,11.82
2022-10-20T09:25:15.338Z,11.8
2022-10-20T09:26:30.469Z,11.81
2022-10-20T09:27:18.797Z,11.8
2022-10-20T09:28:20.563Z,11.8
2022-10-20T09:29:22.249Z,11.8
2022-10-20T09:30:25.161Z,11.79
2022-10-20T09:31:25.709Z,11.79
2022-10-20T09:32:45.412Z,11.78
2022-10-20T09:33:29.165Z,11.78
2022-10-20T09:34:30.884Z,11.76
2022-10-20T09:35:32.588Z,11.76
2022-10-20T09:36:34.325Z,11.75
2022-10-20T09:37:36.057Z,11.76
2022-10-20T09:38:41.960Z,11.74
2022-10-20T09:39:44.651Z,11.73
2022-10-20T09:40:46.393Z,11.71
2022-10-20T09:41:48.089Z,11.7
2022-10-20T09:42:49.813Z,11.69
2022-10-20T09:43:53.218Z,11.67
2022-10-20T09:44:53.286Z,11.65
2022-10-20T09:45:55.010Z,11.65
2022-10-20T09:46:56.728Z,11.63
2022-10-20T09:47:59.482Z,11.62
2022-10-20T09:49:00.182Z,11.62
2022-10-20T09:50:01.901Z,11.59
2022-10-20T09:51:03.695Z,11.57
2022-10-20T09:52:05.349Z,11.58
2022-10-20T09:53:07.082Z,11.55
2022-10-20T09:54:08.853Z,11.52
2022-10-20T09:55:10.517Z,11.52
2022-10-20T09:56:12.256Z,11.5
2022-10-20T09:57:13.977Z,11.51
2022-10-20T09:58:17.115Z,11.51
2022-10-20T09:59:17.444Z,11.5
2022-10-20T10:00:36.262Z,11.5
2022-10-20T10:01:20.912Z,11.5
2022-10-20T10:02:22.613Z,11.5
2022-10-20T10:03:24.339Z,11.51
2022-10-20T10:04:26.063Z,11.51
2022-10-20T10:05:27.801Z,11.52
2022-10-20T10:06:29.519Z,11.52
2022-10-20T10:07:31.228Z,11.52
2022-10-20T10:08:33.009Z,11.53
2022-10-20T10:09:34.741Z,11.54
2022-10-20T10:10:36.425Z,11.54
2022-10-20T10:11:38.151Z,11.55
2022-10-20T10:12:40.097Z,11.55
2022-10-20T10:13:41.580Z,11.56
2022-10-20T10:14:43.330Z,11.56
2022-10-20T10:15:45.029Z,11.57
2022-10-20T10:16:46.754Z,11.56
2022-10-20T10:17:48.487Z,11.56
2022-10-20T10:18:50.211Z,11.57
2022-10-20T10:19:55.435Z,11.59
2022-10-20T10:20:53.657Z,11.59
2022-10-20T10:21:55.414Z,11.6
2022-10-20T10:22:57.129Z,11.62
2022-10-20T10:23:58.857Z,11.64
2022-10-20T10:25:00.579Z,11.65
2022-10-20T10:26:03.320Z,11.66
2022-10-20T10:27:04.097Z,11.68
2022-10-20T10:28:05.735Z,11.7
2022-10-20T10:29:07.574Z,11.73
2022-10-20T10:30:09.220Z,11.75
2022-10-20T10:31:10.936Z,11.79
2022-10-20T10:32:12.693Z,11.82
2022-10-20T10:33:14.401Z,11.9
2022-10-20T10:34:16.140Z,11.93
2022-10-20T10:35:17.882Z,11.98
2022-10-20T10:36:19.601Z,12.04
2022-10-20T10:37:32.374Z,12.09
2022-10-20T10:39:24.055Z,12.27
2022-10-20T10:40:24.458Z,12.44
2022-10-20T10:42:34.757Z,12.81
2022-10-20T10:44:10.181Z,12.91
2022-10-20T10:45:12.285Z,12.93
2022-10-20T10:46:13.510Z,12.94
2022-10-20T10:47:15.315Z,12.94
2022-10-20T10:48:17.046Z,12.96
2022-10-20T10:50:09.207Z,12.95
2022-10-20T10:51:10.893Z,13.1
2022-10-20T10:52:11.388Z,13.07
2022-10-20T10:53:20.177Z,13.08
2022-10-20T10:54:25.556Z,13.07
2022-10-20T10:55:47.101Z,13.06
2022-10-20T10:56:34.145Z,13.06
2022-10-20T10:57:38.716Z,13.08
2022-10-20T10:58:40.208Z,13.07
2022-10-20T10:59:44.652Z,13.08
2022-10-20T11:00:46.451Z,13.08
2022-10-20T11:01:48.106Z,13.08
2022-10-20T11:02:49.839Z,13.06
2022-10-20T11:03:51.582Z,13.05
2022-10-20T11:04:53.336Z,13.06
2022-10-20T11:05:55.028Z,13.07
2022-10-20T11:06:58.073Z,13.06
2022-10-20T11:07:58.503Z,13.05
2022-10-20T11:09:00.265Z,13.04
2022-10-20T11:10:01.970Z,13.03
2022-10-20T11:11:03.701Z,13.04
2022-10-20T11:12:05.444Z,13.02
2022-10-20T11:13:07.165Z,13.02
2022-10-20T11:14:09.002Z,13.01
2022-10-20T11:15:10.652Z,13.01
2022-10-20T11:16:12.389Z,12.99
2022-10-20T11:17:14.121Z,13
2022-10-20T11:18:15.842Z,13
2022-10-20T11:19:17.570Z,12.99
2022-10-20T11:20:19.305Z,12.99
2022-10-20T11:21:21.039Z,12.97
2022-10-20T11:22:22.774Z,12.97
2022-10-20T11:23:24.645Z,12.97
2022-10-20T11:24:26.294Z,12.95
2022-10-20T11:25:27.976Z,12.92
2022-10-20T11:26:29.731Z,12.93
2022-10-20T11:27:31.441Z,12.92
2022-10-20T11:28:43.534Z,12.92
2022-10-20T11:29:45.276Z,12.91
2022-10-20T11:30:59.834Z,12.91
2022-10-20T11:32:01.579Z,12.89
2022-10-20T11:33:04.738Z,12.89
2022-10-20T11:34:05.011Z,12.87
2022-10-20T11:35:07.050Z,12.85
2022-10-20T11:36:08.487Z,12.84
2022-10-20T11:37:10.245Z,12.84
2022-10-20T11:38:11.957Z,12.83
2022-10-20T11:39:13.697Z,12.82
2022-10-20T11:40:15.440Z,12.81
2022-10-20T11:41:17.163Z,12.81
2022-10-20T11:42:18.922Z,12.81
2022-10-20T11:43:20.686Z,12.81
2022-10-20T11:44:22.365Z,12.8
2022-10-20T11:45:24.108Z,12.8
2022-10-20T11:46:25.837Z,12.78
2022-10-20T11:47:27.591Z,12.78
2022-10-20T11:48:29.309Z,12.77
2022-10-20T11:49:31.040Z,12.77
2022-10-20T11:50:32.776Z,12.76
2022-10-20T11:51:34.510Z,12.76
2022-10-20T11:52:36.495Z,12.75
2022-10-20T11:53:37.985Z,12.73
2022-10-20T11:54:39.726Z,12.72
2022-10-20T11:55:41.452Z,12.71
2022-10-20T11:56:43.174Z,12.7
2022-10-20T11:57:44.947Z,12.69
2022-10-20T11:58:48.854Z,12.68
2022-10-20T11:59:53.522Z,12.67
2022-10-20T12:00:57.636Z,12.66
2022-10-20T12:02:26.382Z,12.65
2022-10-20T12:03:51.356Z,12.63
2022-10-20T12:04:53.096Z,12.62
2022-10-20T12:06:10.089Z,12.6
2022-10-20T12:07:41.950Z,12.57
2022-10-20T12:08:42.984Z,12.57
2022-10-20T12:09:44.620Z,12.55
2022-10-20T12:10:46.340Z,12.55
2022-10-20T12:11:48.134Z,12.54
2022-10-20T12:12:49.818Z,12.53
2022-10-20T12:13:51.585Z,12.53
2022-10-20T12:14:53.283Z,12.52
2022-10-20T12:15:55.033Z,12.51
2022-10-20T12:16:56.751Z,12.51
2022-10-20T12:17:58.508Z,12.5
2022-10-20T12:20:01.984Z,12.46
2022-10-20T12:21:03.700Z,12.44
2022-10-20T12:22:05.434Z,12.43
2022-10-20T12:23:07.158Z,12.42
2022-10-20T12:24:08.897Z,12.4
2022-10-20T12:25:10.651Z,12.39
2022-10-20T12:26:12.386Z,12.38
2022-10-20T12:27:14.091Z,12.36
2022-10-20T12:28:15.823Z,12.35
2022-10-20T12:29:17.573Z,12.35
2022-10-20T12:30:19.318Z,12.34
2022-10-20T12:31:21.061Z,12.32
2022-10-20T12:32:22.770Z,12.3
2022-10-20T12:33:24.501Z,12.3
2022-10-20T12:34:26.259Z,12.29
2022-10-20T12:35:27.995Z,12.29
2022-10-20T12:36:29.727Z,12.28
2022-10-20T12:37:31.446Z,12.28
2022-10-20T12:38:33.179Z,12.28
2022-10-20T12:39:34.921Z,12.28
2022-10-20T12:40:36.659Z,12.28
2022-10-20T12:41:38.415Z,12.28
2022-10-20T12:42:40.119Z,12.27
2022-10-20T12:43:41.908Z,12.28
2022-10-20T12:44:43.599Z,12.28
2022-10-20T12:45:45.341Z,12.28
2022-10-20T12:46:47.049Z,12.28
2022-10-20T12:47:48.785Z,12.27
2022-10-20T12:48:50.524Z,12.27
2022-10-20T12:49:52.263Z,12.26
2022-10-20T12:50:53.999Z,12.26
2022-10-20T12:51:56.830Z,12.27
2022-10-20T12:52:57.463Z,12.27
2022-10-20T12:54:14.657Z,12.27
2022-10-20T12:55:16.431Z,12.27
2022-10-20T12:56:18.107Z,12.27
2022-10-20T12:57:19.823Z,12.27
2022-10-20T12:58:21.557Z,12.25
2022-10-20T12:59:23.287Z,12.26
2022-10-20T13:00:25.202Z,12.26
2022-10-20T13:01:26.734Z,12.26
2022-10-20T13:02:28.479Z,12.26
2022-10-20T13:03:30.204Z,12.26
2022-10-20T13:04:31.970Z,12.25
2022-10-20T13:05:33.709Z,12.26
2022-10-20T13:06:35.425Z,12.24
2022-10-20T13:07:37.349Z,12.24
2022-10-20T13:08:38.928Z,12.22
2022-10-20T13:09:40.636Z,12.21
2022-10-20T13:10:42.372Z,12.19
2022-10-20T13:11:44.076Z,12.18
2022-10-20T13:12:45.839Z,12.16
2022-10-20T13:13:47.584Z,12.15
2022-10-20T13:14:49.310Z,12.14
2022-10-20T13:15:51.042Z,12.13
2022-10-20T13:16:52.767Z,12.13
2022-10-20T13:17:54.494Z,12.13
2022-10-20T13:18:56.237Z,12.13
2022-10-20T13:20:01.243Z,12.13
2022-10-20T13:20:59.693Z,12.12
2022-10-20T13:22:01.400Z,12.11
2022-10-20T13:23:03.146Z,12.1
2022-10-20T13:24:04.874Z,12.07
2022-10-20T13:25:06.635Z,12.08
2022-10-20T13:26:08.367Z,12.07
2022-10-20T13:27:10.105Z,12.05
2022-10-20T13:28:11.816Z,12.03
2022-10-20T13:29:13.551Z,12.03
2022-10-20T13:30:15.297Z,12.03
2022-10-20T13:31:17.040Z,12.02
2022-10-20T13:32:18.744Z,12.01
2022-10-20T13:33:33.779Z,12.02
2022-10-20T13:34:22.220Z,12
2022-10-20T13:35:23.974Z,12
2022-10-20T13:36:31.501Z,11.99
2022-10-20T13:37:32.568Z,11.99
2022-10-20T13:38:34.291Z,11.99
2022-10-20T13:39:36.040Z,11.98
2022-10-20T13:40:37.781Z,11.98
2022-10-20T13:41:40.908Z,11.98
2022-10-20T13:42:41.228Z,11.98
2022-10-20T13:43:42.980Z,11.98
2022-10-20T13:44:44.715Z,11.99
2022-10-20T13:45:46.437Z,11.99
2022-10-20T13:46:48.181Z,11.99
2022-10-20T13:47:49.910Z,11.99